Time;durP1;ratioP1;P1;durP2;ratioP2;P2;SDS_P1;SDS_P2;PMS_P1;PMS_P2;Temp;Humidity;BMP_temperature;BMP_pressure;BME280_temperature;BME280_humidity;BME280_pressure;Samples;Min_cycle;Max_cycle;Signal;HPM_P1;HPM_P2
2022/09/10 00:02:01;;;;;;;;;;;;;;;16.72;44.65;100636.19;5050337;28;19947;-83
2022/09/10 00:04:29;;;;;;;;;;;;;;;16.71;44.91;100642.75;5050257;28;20015;-83
2022/09/10 00:06:57;;;;;;;;;;;;;;;16.70;44.94;100639.13;5052717;28;19927;-83
2022/09/10 00:09:25;;;;;;;;;;;;;;;16.69;44.70;100642.06;5049181;28;20008;-83
2022/09/10 00:11:52;;;;;;;;;;;;;;;16.70;44.55;100643.78;5052264;28;19924;-83
2022/09/10 00:14:22;;;;;;;;;;;;;;;16.68;44.99;100640.34;5049566;28;19921;-84
2022/09/10 00:16:51;;;;;;;;;;;;;;;16.67;44.83;100644.13;5058919;28;20392;-83
2022/09/10 00:19:20;;;;;;;;;;;;;;;16.66;45.04;100640.50;5051186;28;20196;-83
2022/09/10 00:21:49;;;;;;;;;;;;;;;16.67;44.83;100644.13;5053673;28;20354;-84
2022/09/10 00:24:17;;;;;;;;;;;;;;;16.66;44.82;100639.69;5049686;28;19930;-83
2022/09/10 00:26:45;;;;;;;;;;;;;;;16.66;45.19;100634.16;5052324;28;19932;-83
2022/09/10 00:29:15;;;;;;;;;;;;;;;16.66;45.22;100639.69;5048400;28;19927;-83
2022/09/10 00:31:44;;;;;;;;;;;;;;;16.66;45.28;100639.69;5049749;28;19935;-83
2022/09/10 00:34:13;;;;;;;;;;;;;;;16.66;45.28;100645.19;5048318;28;20796;-83
2022/09/10 00:36:42;;;;;;;;;;;;;;;16.65;45.32;100647.09;5054673;28;19952;-84
2022/09/10 00:39:14;;;;;;;;;;;;;;;16.66;45.47;100642.44;5045370;28;19925;-84
2022/09/10 00:41:43;;;;;;;;;;;;;;;16.66;45.52;100642.44;5052130;28;20011;-84
2022/09/10 00:44:30;;;;;;;;;;;;;;;16.66;45.47;100634.16;5052512;28;19929;-83
2022/09/10 00:47:02;;;;;;;;;;;;;;;16.66;45.56;100636.91;5048115;28;19970;-83
2022/09/10 00:49:33;;;;;;;;;;;;;;;16.66;45.56;100628.63;5050469;28;20330;-85
2022/09/10 00:52:01;;;;;;;;;;;;;;;16.66;44.95;100636.91;5044312;28;19928;-85
2022/09/10 00:54:31;;;;;;;;;;;;;;;16.66;45.38;100634.16;5050152;28;19928;-83
2022/09/10 00:57:01;;;;;;;;;;;;;;;16.66;45.29;100628.63;5053369;28;19927;-83
2022/09/10 00:59:30;;;;;;;;;;;;;;;16.64;45.46;100632.44;5049710;28;19931;-84
2022/09/10 01:01:58;;;;;;;;;;;;;;;16.64;45.46;100626.91;5040618;28;19967;-83
2022/09/10 01:04:27;;;;;;;;;;;;;;;16.64;45.34;100635.19;5054465;28;19924;-83
2022/09/10 01:06:57;;;;;;;;;;;;;;;16.64;44.91;100634.31;5062395;28;20272;-84
2022/09/10 01:09:26;;;;;;;;;;;;;;;16.63;44.92;100636.22;5061438;28;19921;-83
2022/09/10 01:12:01;;;;;;;;;;;;;;;16.63;44.94;100624.31;5052463;28;19927;-83
2022/09/10 01:14:43;;;;;;;;;;;;;;;16.63;45.30;100627.06;5052960;28;19921;-84
2022/09/10 01:17:17;;;;;;;;;;;;;;;16.63;45.23;100629.84;5053706;28;19925;-84
2022/09/10 01:19:58;;;;;;;;;;;;;;;16.61;44.79;100627.25;5051561;28;19948;-83
2022/09/10 01:22:36;;;;;;;;;;;;;;;16.61;44.99;100627.25;5048514;28;20335;-83
2022/09/10 01:25:10;;;;;;;;;;;;;;;16.61;45.41;100618.97;5050034;28;19992;-84
2022/09/10 01:27:41;;;;;;;;;;;;;;;16.61;45.11;100624.47;5054700;28;20506;-83
2022/09/10 01:30:13;;;;;;;;;;;;;;;16.61;45.03;100621.72;5051128;28;19928;-84
2022/09/10 01:32:49;;;;;;;;;;;;;;;16.60;45.15;100620.00;5049551;28;19924;-84
2022/09/10 01:35:20;;;;;;;;;;;;;;;16.61;45.10;100621.72;5051805;28;19920;-83
2022/09/10 01:37:53;;;;;;;;;;;;;;;16.61;45.39;100621.72;5046534;28;20355;-84
2022/09/10 01:40:28;;;;;;;;;;;;;;;16.61;45.55;100616.19;5051355;28;20108;-83
2022/09/10 01:43:02;;;;;;;;;;;;;;;16.62;45.15;100619.81;5049566;28;19921;-84
2022/09/10 01:45:32;;;;;;;;;;;;;;;16.62;45.04;100630.88;5048725;28;19921;-83
2022/09/10 01:48:12;;;;;;;;;;;;;;;16.61;45.20;100618.09;5046084;28;20578;-83
2022/09/10 01:50:45;;;;;;;;;;;;;;;16.61;45.53;100615.31;5043605;28;20226;-83
2022/09/10 01:53:29;;;;;;;;;;;;;;;16.61;45.45;100616.19;5047228;28;20267;-82
2022/09/10 01:55:59;;;;;;;;;;;;;;;16.60;45.11;100617.22;5041244;28;19939;-84
2022/09/10 01:58:34;;;;;;;;;;;;;;;16.61;45.58;100620.84;5045255;28;19956;-84
2022/09/10 02:01:16;;;;;;;;;;;;;;;16.61;45.62;100626.38;5047910;28;20019;-83
2022/09/10 02:03:46;;;;;;;;;;;;;;;16.60;45.63;100614.47;5049458;28;19971;-82
2022/09/10 02:06:17;;;;;;;;;;;;;;;16.60;45.21;100613.59;5047219;28;20378;-83
2022/09/10 02:08:49;;;;;;;;;;;;;;;16.61;45.53;100615.31;5047666;28;19920;-83
2022/09/10 02:11:16;;;;;;;;;;;;;;;16.60;45.68;100617.22;5048840;28;19939;-83
2022/09/10 02:13:49;;;;;;;;;;;;;;;16.60;45.57;100616.38;5048795;28;19960;-82
2022/09/10 02:16:30;;;;;;;;;;;;;;;16.59;45.71;100618.28;5044466;28;19931;-83
2022/09/10 02:18:59;;;;;;;;;;;;;;;16.60;45.69;100610.84;5041920;28;19943;-83
2022/09/10 02:21:27;;;;;;;;;;;;;;;16.59;45.15;100611.88;5047634;28;19939;-82
2022/09/10 02:23:57;;;;;;;;;;;;;;;16.59;45.29;100614.63;5044523;28;19921;-82
2022/09/10 02:26:26;;;;;;;;;;;;;;;16.59;45.66;100615.50;5047044;28;19930;-82
2022/09/10 02:28:55;;;;;;;;;;;;;;;16.60;45.26;100610.84;5044640;28;20400;-83
2022/09/10 02:31:22;;;;;;;;;;;;;;;16.59;45.40;100609.13;5037740;28;19940;-83
2022/09/10 02:33:50;;;;;;;;;;;;;;;16.59;45.61;100617.41;5046273;28;19956;-84
2022/09/10 02:36:18;;;;;;;;;;;;;;;16.58;45.35;100622.06;5047739;28;19921;-84
2022/09/10 02:38:47;;;;;;;;;;;;;;;16.59;45.92;100620.16;5043785;28;19928;-84
2022/09/10 02:41:15;;;;;;;;;;;;;;;16.57;45.91;100620.38;5042913;28;20221;-84
2022/09/10 02:43:44;;;;;;;;;;;;;;;16.57;45.51;100616.75;5047798;28;19921;-84
2022/09/10 02:46:13;;;;;;;;;;;;;;;16.56;46.11;100615.88;5043566;28;19940;-83
2022/09/10 02:48:42;;;;;;;;;;;;;;;16.55;46.17;100616.91;5049804;28;19928;-84
2022/09/10 02:51:09;;;;;;;;;;;;;;;16.55;46.29;100621.59;5046895;28;19921;-84
2022/09/10 02:53:38;;;;;;;;;;;;;;;16.53;46.25;100616.22;5048135;28;19928;-83
2022/09/10 02:56:07;;;;;;;;;;;;;;;16.53;46.12;100619.00;5047716;28;19983;-83
2022/09/10 02:58:36;;;;;;;;;;;;;;;16.52;46.16;100617.25;5045000;28;19963;-83
2022/09/10 03:01:05;;;;;;;;;;;;;;;16.52;46.26;100611.75;5044015;28;20039;-84
2022/09/10 03:03:34;;;;;;;;;;;;;;;16.50;45.99;100624.88;5048828;28;19951;-83
2022/09/10 03:06:02;;;;;;;;;;;;;;;16.50;46.67;100613.81;5046031;28;20173;-84
2022/09/10 03:08:30;;;;;;;;;;;;;;;16.49;46.09;100614.88;5042187;28;20180;-84
2022/09/10 03:10:58;;;;;;;;;;;;;;;16.49;46.23;100614.03;5043818;28;19967;-84
2022/09/10 03:13:27;;;;;;;;;;;;;;;16.48;46.39;100618.69;5041007;28;19925;-83
2022/09/10 03:15:58;;;;;;;;;;;;;;;16.46;46.39;100618.00;5056210;28;19928;-84
2022/09/10 03:18:26;;;;;;;;;;;;;;;16.46;46.65;100615.22;5052934;28;20015;-84
2022/09/10 03:20:56;;;;;;;;;;;;;;;16.46;46.54;100606.06;5050829;28;19928;-84
2022/09/10 03:23:23;;;;;;;;;;;;;;;16.45;46.55;100612.63;5050349;28;20375;-82
2022/09/10 03:25:51;;;;;;;;;;;;;;;16.44;46.44;100614.53;5052595;28;19974;-83
2022/09/10 03:28:25;;;;;;;;;;;;;;;16.43;46.69;100621.09;5045309;28;19951;-84
2022/09/10 03:30:53;;;;;;;;;;;;;;;16.43;46.21;100623.84;5053253;28;20294;-83
2022/09/10 03:33:21;;;;;;;;;;;;;;;16.41;46.55;100614.06;5052367;28;19920;-83
2022/09/10 03:35:48;;;;;;;;;;;;;;;;;;5054289;28;19920;-84
2022/09/10 03:38:18;;;;;;;;;;;;;;;16.40;46.92;100609.56;4973506;28;19929;-83
2022/09/10 03:40:46;;;;;;;;;;;;;;;16.39;46.34;100614.22;4975703;28;19921;-83
2022/09/10 03:43:14;;;;;;;;;;;;;;;16.39;46.86;100616.13;4976798;28;19928;-83
2022/09/10 03:45:42;;;;;;;;;;;;;;;16.39;46.56;100610.59;4972373;28;20024;-82
2022/09/10 03:48:10;;;;;;;;;;;;;;;16.38;46.88;100608.88;4974481;28;19926;-83
2022/09/10 03:50:38;;;;;;;;;;;;;;;16.38;46.81;100611.63;4975067;28;20024;-83
2022/09/10 03:53:06;;;;;;;;;;;;;;;16.37;46.73;100613.53;4986200;28;19929;-83
2022/09/10 03:55:36;;;;;;;;;;;;;;;16.37;46.88;100619.06;4982640;28;20016;-83
2022/09/10 03:58:04;;;;;;;;;;;;;;;16.36;46.83;100608.19;5055215;28;19921;-83
2022/09/10 04:00:32;;;;;;;;;;;;;;;16.35;46.44;100617.50;5052834;28;20015;-82
2022/09/10 04:03:00;;;;;;;;;;;;;;;16.35;46.93;100615.59;5047179;28;19986;-84
2022/09/10 04:05:31;;;;;;;;;;;;;;;16.34;46.58;100613.88;5051670;28;19935;-83
2022/09/10 04:08:00;;;;;;;;;;;;;;;16.33;46.71;100619.59;5051282;28;19924;-83
2022/09/10 04:10:29;;;;;;;;;;;;;;;16.32;46.51;100618.75;5052514;28;19921;-83
2022/09/10 04:12:58;;;;;;;;;;;;;;;16.32;46.49;100618.75;5033997;28;20709;-83
2022/09/10 04:15:27;;;;;;;;;;;;;;;16.32;46.64;100615.97;5038037;28;19957;-83
2022/09/10 04:17:56;;;;;;;;;;;;;;;16.30;46.61;100620.81;5051062;28;19924;-83
2022/09/10 04:20:25;;;;;;;;;;;;;;;16.31;46.64;100611.50;5054578;28;19920;-86
2022/09/10 04:23:01;;;;;;;;;;;;;;;16.30;46.34;100612.53;5052159;28;19966;-83
2022/09/10 04:25:30;;;;;;;;;;;;;;;16.29;46.92;100616.31;5055909;28;19920;-85
2022/09/10 04:28:00;;;;;;;;;;;;;;;16.29;46.48;100616.31;5054077;28;20368;-86
2022/09/10 04:30:29;;;;;;;;;;;;;;;16.29;46.38;100618.22;5053462;28;19927;-84
2022/09/10 04:33:01;;;;;;;;;;;;;;;16.28;46.55;100614.59;5053531;28;19921;-86
2022/09/10 04:35:32;;;;;;;;;;;;;;;16.27;46.99;100623.91;5053424;28;19921;-85
2022/09/10 04:38:03;;;;;;;;;;;;;;;16.26;47.01;100617.53;5052732;28;19974;-82
2022/09/10 04:40:30;;;;;;;;;;;;;;;16.26;46.85;100617.53;5053561;28;20387;-82
2022/09/10 04:43:00;;;;;;;;;;;;;;;16.25;46.75;100618.56;5060141;28;20382;-81
2022/09/10 04:45:28;;;;;;;;;;;;;;;16.25;47.06;100618.56;5047967;28;19928;-82
2022/09/10 04:47:56;;;;;;;;;;;;;;;16.25;46.95;100620.47;5065419;28;19970;-82
2022/09/10 04:50:24;;;;;;;;;;;;;;;16.24;46.74;100622.41;5052627;28;19986;-84
2022/09/10 04:53:14;;;;;;;;;;;;;;;16.23;47.17;100626.19;5049108;28;19921;-82
2022/09/10 04:55:43;;;;;;;;;;;;;;;16.24;46.55;100629.81;5058991;28;19928;-82
2022/09/10 04:58:13;;;;;;;;;;;;;;;16.23;46.74;100641.91;5058262;28;19956;-82
2022/09/10 05:00:42;;;;;;;;;;;;;;;16.23;47.15;100622.56;5049579;28;19924;-82
2022/09/10 05:03:12;;;;;;;;;;;;;;;16.22;46.74;100629.97;5064882;28;19925;-82
2022/09/10 05:05:42;;;;;;;;;;;;;;;16.23;46.87;100633.59;5051025;28;20303;-83
2022/09/10 05:08:09;;;;;;;;;;;;;;;16.23;47.32;100634.47;5049737;28;19955;-80
2022/09/10 05:10:37;;;;;;;;;;;;;;;16.23;46.96;100634.47;5050485;28;19927;-81
2022/09/10 05:13:06;;;;;;;;;;;;;;;16.23;47.37;100625.31;5049706;28;20587;-81
2022/09/10 05:15:39;;;;;;;;;;;;;;;16.24;46.88;100635.34;5047226;28;19920;-81
2022/09/10 05:18:08;;;;;;;;;;;;;;;16.23;47.42;100628.94;5053527;28;19952;-82
2022/09/10 05:20:37;;;;;;;;;;;;;;;16.23;47.08;100631.72;5051856;28;19920;-82
2022/09/10 05:23:05;;;;;;;;;;;;;;;16.24;47.24;100643.63;5048771;28;19967;-82
2022/09/10 05:25:34;;;;;;;;;;;;;;;16.24;47.61;100644.47;5045704;28;20311;-82
2022/09/10 05:28:04;;;;;;;;;;;;;;;16.23;47.14;100640.00;5061955;28;20011;-82
2022/09/10 05:30:32;;;;;;;;;;;;;;;16.24;47.20;100647.25;5048494;28;19928;-82
2022/09/10 05:33:01;;;;;;;;;;;;;;;16.25;47.59;100648.06;5050592;28;19920;-84
2022/09/10 05:35:32;;;;;;;;;;;;;;;16.25;47.81;100642.56;5049721;28;19983;-82
2022/09/10 05:38:02;;;;;;;;;;;;;;;16.25;47.37;100648.06;5065215;28;19921;-85
2022/09/10 05:40:35;;;;;;;;;;;;;;;16.23;47.74;100645.53;5033626;28;19925;-84
2022/09/10 05:43:03;;;;;;;;;;;;;;;16.24;47.91;100652.75;5048403;28;20358;-86
2022/09/10 05:45:32;;;;;;;;;;;;;;;16.23;47.76;100645.53;5048613;28;19924;-85
2022/09/10 05:48:02;;;;;;;;;;;;;;;16.24;47.89;100649.13;5051554;28;19920;-83
2022/09/10 05:50:30;;;;;;;;;;;;;;;16.23;47.46;100651.03;5054544;28;19921;-85
2022/09/10 05:52:59;;;;;;;;;;;;;;;16.23;47.57;100655.69;5045714;28;19982;-84
2022/09/10 05:55:30;;;;;;;;;;;;;;;16.23;47.47;100656.56;5051092;28;19950;-83
2022/09/10 05:57:58;;;;;;;;;;;;;;;16.23;47.49;100658.47;5050605;28;19967;-83
2022/09/10 06:00:25;;;;;;;;;;;;;;;16.23;47.84;100663.97;5049155;28;19921;-84
2022/09/10 06:02:58;;;;;;;;;;;;;;;16.24;47.44;100660.19;5051850;28;19963;-83
2022/09/10 06:05:54;;;;;;;;;;;;;;;16.23;47.64;100656.56;5038088;28;19925;-83
2022/09/10 06:08:27;;;;;;;;;;;;;;;16.23;47.50;100667.59;5040832;28;19924;-83
2022/09/10 06:10:57;;;;;;;;;;;;;;;16.23;47.60;100662.09;5051293;28;20007;-83
2022/09/10 06:13:27;;;;;;;;;;;;;;;16.22;47.91;100663.13;5038862;28;20349;-83
2022/09/10 06:15:56;;;;;;;;;;;;;;;16.23;47.66;100666.75;5050208;28;20017;-85
2022/09/10 06:18:26;;;;;;;;;;;;;;;16.22;47.52;100671.41;5049610;28;19928;-84
2022/09/10 06:21:03;;;;;;;;;;;;;;;16.23;47.70;100677.78;5047196;28;20355;-84
2022/09/10 06:23:32;;;;;;;;;;;;;;;16.22;47.73;100676.94;5041641;28;19927;-86
2022/09/10 06:26:03;;;;;;;;;;;;;;;16.23;47.94;100686.06;5046521;28;19975;-84
2022/09/10 06:28:34;;;;;;;;;;;;;;;16.22;48.22;100678.81;5044927;28;19927;-84
2022/09/10 06:31:03;;;;;;;;;;;;;;;16.21;47.92;100685.38;5044836;28;19921;-84
2022/09/10 06:33:32;;;;;;;;;;;;;;;16.21;48.30;100689.00;5043392;28;19948;-84
2022/09/10 06:36:02;;;;;;;;;;;;;;;16.22;48.33;100687.09;5051140;28;20015;-85
2022/09/10 06:38:32;;;;;;;;;;;;;;;16.20;48.25;100689.16;5046483;28;19921;-83
2022/09/10 06:41:03;;;;;;;;;;;;;;;16.19;47.85;100688.31;5039517;28;19921;-83
2022/09/10 06:43:37;;;;;;;;;;;;;;;16.18;48.19;100691.25;5047850;28;19925;-84
2022/09/10 06:46:17;;;;;;;;;;;;;;;16.17;48.26;100684.00;5044682;28;19921;-83
2022/09/10 06:49:10;;;;;;;;;;;;;;;16.16;48.38;100694.16;5044211;28;19925;-83
2022/09/10 06:51:41;;;;;;;;;;;;;;;16.15;48.02;100697.09;5053985;28;19943;-83
2022/09/10 06:54:12;;;;;;;;;;;;;;;16.14;48.05;100703.66;5050110;28;19925;-84
2022/09/10 06:56:41;;;;;;;;;;;;;;;16.14;48.05;100695.38;5066887;28;19921;-84
2022/09/10 06:59:13;;;;;;;;;;;;;;;16.12;48.51;100695.53;5049124;28;19947;-83
2022/09/10 07:01:47;;;;;;;;;;;;;;;16.13;48.09;100704.69;5070301;22;19909;-70
2022/09/10 07:04:16;;;;;;;;;;;;;;;16.12;48.54;100706.59;5036458;28;19972;-71
2022/09/10 07:06:44;;;;;;;;;;;;;;;16.12;48.25;100700.19;5048718;28;19920;-70
2022/09/10 07:09:17;;;;;;;;;;;;;;;16.11;48.19;100709.50;5030354;28;20011;-70
2022/09/10 07:11:52;;;;;;;;;;;;;;;16.10;48.38;100705.03;5025102;28;19921;-70
2022/09/10 07:14:20;;;;;;;;;;;;;;;16.10;48.74;100705.03;5034984;28;20003;-70
2022/09/10 07:16:50;;;;;;;;;;;;;;;16.08;48.72;100712.63;5044526;28;20019;-70
2022/09/10 07:19:19;;;;;;;;;;;;;;;16.07;48.87;100719.19;5046423;28;19924;-71
2022/09/10 07:21:47;;;;;;;;;;;;;;;16.06;48.84;100711.94;5064022;28;20003;-70
2022/09/10 07:24:18;;;;;;;;;;;;;;;16.05;48.53;100715.72;5043248;28;19921;-71
2022/09/10 07:27:05;;;;;;;;;;;;;;;16.04;48.89;100712.09;5044506;28;20003;-70
2022/09/10 07:29:34;;;;;;;;;;;;;;;16.03;48.52;100710.38;5026920;28;19921;-71
2022/09/10 07:32:03;;;;;;;;;;;;;;;16.02;48.79;100713.31;5027125;28;19948;-69
2022/09/10 07:34:31;;;;;;;;;;;;;;;16.01;49.00;100711.59;5043156;28;20408;-68
2022/09/10 07:37:00;;;;;;;;;;;;;;;16.00;48.70;100713.47;5024981;28;19926;-69
2022/09/10 07:39:30;;;;;;;;;;;;;;;15.99;49.13;100725.59;5007725;28;20408;-69
2022/09/10 07:41:59;;;;;;;;;;;;;;;15.98;48.78;100715.56;5025391;28;20197;-69
2022/09/10 07:44:29;;;;;;;;;;;;;;;15.98;49.22;100715.56;5026525;28;19925;-69
2022/09/10 07:47:02;;;;;;;;;;;;;;;15.96;49.25;100714.88;5027561;28;19983;-69
2022/09/10 07:49:31;;;;;;;;;;;;;;;15.96;49.24;100719.53;5008154;28;19953;-70
2022/09/10 07:51:59;;;;;;;;;;;;;;;15.96;49.03;100722.28;5027579;28;19925;-70
2022/09/10 07:54:33;;;;;;;;;;;;;;;15.96;48.93;100719.53;5043233;28;19921;-70
2022/09/10 07:57:01;;;;;;;;;;;;;;;15.95;49.39;100718.66;5029717;28;19929;-69
2022/09/10 07:59:29;;;;;;;;;;;;;;;15.95;49.48;100724.19;5045371;28;20032;-69
2022/09/10 08:01:59;;;;;;;;;;;;;;;15.95;49.13;100721.44;5047506;28;19927;-70
2022/09/10 08:04:30;;;;;;;;;;;;;;;15.95;49.19;100717.81;5029436;28;19948;-69
2022/09/10 08:07:04;;;;;;;;;;;;;;;15.96;49.59;100719.53;5028939;28;20469;-68
2022/09/10 08:09:34;;;;;;;;;;;;;;;15.97;49.13;100724.03;5029794;28;20333;-69
2022/09/10 08:12:06;;;;;;;;;;;;;;;15.97;49.67;100722.13;5041995;28;20385;-61
2022/09/10 08:14:36;;;;;;;;;;;;;;;15.98;49.68;100723.00;5024811;28;20345;-60
2022/09/10 08:17:04;;;;;;;;;;;;;;;15.99;49.32;100713.69;5025639;28;20278;-61
2022/09/10 08:19:36;;;;;;;;;;;;;;;16.00;49.30;100723.69;5026128;28;19920;-62
2022/09/10 08:22:04;;;;;;;;;;;;;;;16.01;49.42;100722.63;5023197;28;19928;-61
2022/09/10 08:24:42;;;;;;;;;;;;;;;16.03;49.77;100723.31;5044323;28;20168;-61
2022/09/10 08:27:10;;;;;;;;;;;;;;;16.03;49.72;100726.94;5025589;28;20448;-62
2022/09/10 08:29:38;;;;;;;;;;;;;;;16.05;49.70;100718.50;5024408;28;19932;-62
2022/09/10 08:32:08;;;;;;;;;;;;;;;16.07;49.59;100724.72;5042446;28;20348;-61
2022/09/10 08:34:36;;;;;;;;;;;;;;;16.08;49.49;100726.44;5025454;28;20020;-61
2022/09/10 08:37:07;;;;;;;;;;;;;;;16.10;49.51;100733.50;5022489;28;19960;-62
2022/09/10 08:39:36;;;;;;;;;;;;;;;16.11;49.74;100723.31;5025025;28;19956;-62
2022/09/10 08:42:09;;;;;;;;;;;;;;;16.13;49.90;100730.41;5026591;28;20390;-61
2022/09/10 08:44:47;;;;;;;;;;;;;;;16.14;49.70;100725.75;5026045;28;19921;-62
2022/09/10 08:47:22;;;;;;;;;;;;;;;16.14;50.05;100732.13;5039735;28;19936;-60
2022/09/10 08:49:53;;;;;;;;;;;;;;;16.16;49.44;100724.53;5021992;28;20047;-61
2022/09/10 08:52:28;;;;;;;;;;;;;;;16.17;49.53;100723.50;5025178;28;19921;-62
2022/09/10 08:55:00;;;;;;;;;;;;;;;16.18;49.98;100716.94;5026101;28;19928;-62
2022/09/10 08:57:32;;;;;;;;;;;;;;;16.19;49.58;100718.69;5026005;28;19935;-62
2022/09/10 09:00:01;;;;;;;;;;;;;;;16.21;49.69;100716.63;5041110;28;19921;-61
2022/09/10 09:02:41;;;;;;;;;;;;;;;16.23;49.60;100721.97;5027498;28;20408;-62
2022/09/10 09:05:19;;;;;;;;;;;;;;;16.24;49.59;100715.41;5022845;28;19925;-61
2022/09/10 09:07:50;;;;;;;;;;;;;;;16.25;50.10;100719.88;5006418;28;19968;-65
2022/09/10 09:10:20;;;;;;;;;;;;;;;16.27;50.00;100723.34;5026809;28;19951;-68
2022/09/10 09:13:16;;;;;;;;;;;;;;;16.29;49.62;100725.91;5024315;28;20043;-66
2022/09/10 09:15:50;;;;;;;;;;;;;;;16.29;49.68;100714.88;4989133;28;19925;-67
2022/09/10 09:18:24;;;;;;;;;;;;;;;16.30;49.96;100719.38;5027980;28;20274;-68
2022/09/10 09:20:55;;;;;;;;;;;;;;;16.30;50.10;100724.88;5026424;28;20043;-66
2022/09/10 09:23:25;;;;;;;;;;;;;;;16.30;50.18;100734.03;5024718;28;19975;-64
2022/09/10 09:25:56;;;;;;;;;;;;;;;16.29;49.89;100731.44;5026299;28;19927;-62
2022/09/10 09:28:31;;;;;;;;;;;;;;;16.29;50.10;100723.16;5039994;28;19952;-63
2022/09/10 09:31:02;;;;;;;;;;;;;;;16.25;50.21;100714.34;5023065;28;19932;-66
2022/09/10 09:33:36;;;;;;;;;;;;;;;16.24;50.11;100715.41;5023644;28;19921;-65
2022/09/10 09:36:04;;;;;;;;;;;;;;;16.22;49.75;100720.25;5018475;28;19929;-65
2022/09/10 09:38:36;;;;;;;;;;;;;;;16.20;49.89;100709.38;5046438;28;20564;-65
2022/09/10 09:41:08;;;;;;;;;;;;;;;16.18;49.90;100711.44;5024566;28;19921;-63
2022/09/10 09:43:45;;;;;;;;;;;;;;;16.16;49.75;100716.25;5025332;28;19955;-65
2022/09/10 09:46:16;;;;;;;;;;;;;;;16.13;49.92;100716.59;5023715;28;19944;-63
2022/09/10 09:48:47;;;;;;;;;;;;;;;16.13;49.81;100721.25;5026366;28;19994;-64
2022/09/10 09:51:19;;;;;;;;;;;;;;;16.12;49.82;100712.09;5024487;28;19932;-64
2022/09/10 09:53:48;;;;;;;;;;;;;;;16.11;49.86;100713.13;5026081;28;20006;-62
2022/09/10 09:56:39;;;;;;;;;;;;;;;16.11;50.02;100715.91;5022377;28;19932;-64
2022/09/10 09:59:10;;;;;;;;;;;;;;;16.12;50.23;100714.00;5021804;28;19925;-63
2022/09/10 10:01:43;;;;;;;;;;;;;;;16.12;50.01;100714.88;5025552;28;19925;-64
2022/09/10 10:04:19;;;;;;;;;;;;;;;16.13;50.14;100699.16;5026484;28;19947;-64
2022/09/10 10:06:54;;;;;;;;;;;;;;;16.13;50.11;100716.59;5028921;28;19921;-63
2022/09/10 10:09:23;;;;;;;;;;;;;;;16.14;50.12;100704.50;5020226;28;20047;-64
2022/09/10 10:11:52;;;;;;;;;;;;;;;16.14;50.44;100699.00;5027831;28;19967;-63
2022/09/10 10:14:35;;;;;;;;;;;;;;;16.14;50.47;100701.75;5027129;28;19921;-64
2022/09/10 10:17:21;;;;;;;;;;;;;;;16.14;50.60;100699.00;5026693;28;19927;-64
2022/09/10 10:19:57;;;;;;;;;;;;;;;16.14;50.27;100690.72;5041318;28;19925;-64
2022/09/10 10:22:28;;;;;;;;;;;;;;;16.16;50.21;100690.53;5044403;28;19948;-64
2022/09/10 10:24:56;;;;;;;;;;;;;;;16.16;50.63;100701.59;5046041;28;19921;-64
2022/09/10 10:27:35;;;;;;;;;;;;;;;16.16;50.42;100699.69;5046717;28;19927;-65
2022/09/10 10:30:21;;;;;;;;;;;;;;;16.18;50.09;100688.47;5045227;28;19921;-65
2022/09/10 10:32:52;;;;;;;;;;;;;;;16.18;50.14;100691.25;5039467;28;20377;-62
2022/09/10 10:35:41;;;;;;;;;;;;;;;16.18;50.61;100705.03;5044952;28;19928;-62
2022/09/10 10:38:31;;;;;;;;;;;;;;;16.18;50.22;100696.75;5042385;28;20460;-62
2022/09/10 10:41:17;;;;;;;;;;;;;;;16.18;50.59;100696.75;5041010;28;20059;-62
2022/09/10 10:43:49;;;;;;;;;;;;;;;16.17;50.55;100690.38;5031140;28;20437;-62
2022/09/10 10:46:19;;;;;;;;;;;;;;;16.18;50.25;100700.38;5040782;28;19966;-62
2022/09/10 10:48:57;;;;;;;;;;;;;;;16.20;50.39;100697.47;5040438;28;19998;-62
2022/09/10 10:51:30;;;;;;;;;;;;;;;16.21;50.23;100708.34;5037618;28;19929;-63
2022/09/10 10:54:05;;;;;;;;;;;;;;;16.23;50.45;100702.63;5041321;28;19928;-64
2022/09/10 10:56:36;;;;;;;;;;;;;;;16.25;50.65;100706.06;5040207;28;20023;-65
2022/09/10 10:59:15;;;;;;;;;;;;;;;16.26;50.67;100707.78;5039813;28;19927;-63
2022/09/10 11:01:47;;;;;;;;;;;;;;;16.29;50.39;100706.59;5038711;28;21776;-64
2022/09/10 11:04:24;;;;;;;;;;;;;;;16.30;50.71;100717.47;5039540;28;20335;-64
2022/09/10 11:06:56;;;;;;;;;;;;;;;16.32;50.42;100709.88;5045425;28;19928;-63
2022/09/10 11:09:26;;;;;;;;;;;;;;;16.34;50.25;100707.78;5041313;28;20385;-64
2022/09/10 11:11:57;;;;;;;;;;;;;;;16.36;50.62;100694.66;5042575;28;19924;-63
2022/09/10 11:14:27;;;;;;;;;;;;;;;16.36;50.53;100702.94;5040960;28;20407;-64
2022/09/10 11:16:58;;;;;;;;;;;;;;;16.36;50.04;100702.09;5043234;28;19952;-64
2022/09/10 11:19:34;;;;;;;;;;;;;;;16.35;50.05;100711.41;5044661;28;20028;-63
2022/09/10 11:22:04;;;;;;;;;;;;;;;16.32;50.10;100709.88;5044234;28;19983;-63
2022/09/10 11:24:35;;;;;;;;;;;;;;;16.31;50.57;100710.03;5043844;28;20319;-63
2022/09/10 11:27:07;;;;;;;;;;;;;;;16.30;50.58;100711.09;5064704;28;20027;-63
2022/09/10 11:29:39;;;;;;;;;;;;;;;16.29;50.10;100707.44;5038406;28;20305;-64
2022/09/10 11:32:12;;;;;;;;;;;;;;;16.27;50.66;100704.00;5043236;28;19927;-64
2022/09/10 11:34:47;;;;;;;;;;;;;;;16.28;50.59;100711.25;5049179;28;20479;-63
2022/09/10 11:37:18;;;;;;;;;;;;;;;16.29;50.53;100703.81;5048178;28;19921;-62
2022/09/10 11:39:47;;;;;;;;;;;;;;;16.29;50.45;100709.34;5046745;28;20024;-64
2022/09/10 11:42:19;;;;;;;;;;;;;;;16.30;50.40;100709.19;5045997;28;20403;-63
2022/09/10 11:44:52;;;;;;;;;;;;;;;16.32;50.49;100709.00;5061368;28;20603;-62
2022/09/10 11:47:23;;;;;;;;;;;;;;;16.34;50.89;100705.00;5045272;28;19924;-62
2022/09/10 11:49:54;;;;;;;;;;;;;;;16.37;50.69;100703.81;5044881;28;19928;-62
2022/09/10 11:52:24;;;;;;;;;;;;;;;16.41;50.79;100707.97;5047173;28;20949;-62
2022/09/10 11:54:53;;;;;;;;;;;;;;;16.46;51.17;100716.56;5046330;28;19925;-61
2022/09/10 11:57:27;;;;;;;;;;;;;;;16.50;50.85;100712.41;5054725;28;20005;-65
2022/09/10 12:00:04;;;;;;;;;;;;;;;16.53;51.24;100714.81;5047035;28;19920;-64
2022/09/10 12:02:47;;;;;;;;;;;;;;;16.57;50.43;100718.97;5040880;28;20278;-65
2022/09/10 12:05:22;;;;;;;;;;;;;;;16.59;50.54;100728.78;5043398;28;19920;-63
2022/09/10 12:07:53;;;;;;;;;;;;;;;16.60;51.25;100716.69;5049425;28;20401;-64
2022/09/10 12:10:30;;;;;;;;;;;;;;;16.63;51.21;100718.25;5049986;28;20361;-63
2022/09/10 12:12:58;;;;;;;;;;;;;;;16.66;50.76;100719.81;5048479;28;20023;-65
2022/09/10 12:15:29;;;;;;;;;;;;;;;16.67;50.69;100724.28;5050134;28;19921;-64
2022/09/10 12:17:59;;;;;;;;;;;;;;;16.69;50.83;100722.19;5049304;28;19927;-64
2022/09/10 12:20:31;;;;;;;;;;;;;;;16.72;51.09;100724.63;5049781;28;19925;-64
2022/09/10 12:22:59;;;;;;;;;;;;;;;16.74;51.25;100717.88;5046708;28;19927;-64
2022/09/10 12:25:28;;;;;;;;;;;;;;;16.78;50.83;100722.00;5048087;28;20443;-64
2022/09/10 12:28:04;;;;;;;;;;;;;;;16.81;51.03;100729.09;5048868;28;20344;-63
2022/09/10 12:30:59;;;;;;;;;;;;;;;16.84;51.22;100729.56;5047938;28;19935;-63
2022/09/10 12:33:53;;;;;;;;;;;;;;;16.88;50.79;100725.41;5041234;28;19921;-64
2022/09/10 12:36:35;;;;;;;;;;;;;;;16.91;51.17;100726.94;5045356;28;19921;-63
2022/09/10 12:39:23;;;;;;;;;;;;;;;16.95;50.70;100722.78;5047890;28;19960;-64
2022/09/10 12:41:56;;;;;;;;;;;;;;;16.98;51.14;100716.94;5050554;28;19921;-62
2022/09/10 12:44:43;;;;;;;;;;;;;;;17.00;51.23;100718.47;5054222;28;19925;-61
2022/09/10 12:47:27;;;;;;;;;;;;;;;17.05;50.94;100717.09;5048669;28;20741;-64
2022/09/10 12:49:56;;;;;;;;;;;;;;;17.08;51.27;100711.19;5039613;28;19952;-64
2022/09/10 12:52:30;;;;;;;;;;;;;;;17.10;51.17;100721.03;5047698;28;19999;-61
2022/09/10 12:55:04;;;;;;;;;;;;;;;17.14;51.11;100716.00;5049059;28;20332;-63
2022/09/10 12:57:35;;;;;;;;;;;;;;;17.17;50.87;100707.34;5048514;28;20388;-64
2022/09/10 13:00:11;;;;;;;;;;;;;;;17.19;50.86;100703.34;5047027;28;19925;-63
2022/09/10 13:02:44;;;;;;;;;;;;;;;17.23;51.24;100703.88;5074031;22;19931;-61